KITH/ITH METAR and TAF weather

Enter ICAO airport designator
Station Type Date Time Source
KITH METAR 2020/08/15 15:56 UTC NOAA

KITH 151556Z VRB04KT 10SM SCT080 BKN100 24/19 A3005 RMK AO2 SLP171 T02390189


Station Type Date Time Source
KITH Decoded METAR 2020/08/15 15:56 UTC NOAA

Ithaca, Ithaca Tompkins Regional Airport, NY, United States (KITH) 42-29-27N 076-27-30W
Aug 15, 2020 - 11:56 AM EDT / 2020.08.15 1556 UTC
Wind: Variable at 5 MPH (4 KT):0
Visibility: 10 mile(s):0
Sky conditions: mostly cloudy
Temperature: 75.0 F (23.9 C)
Dew Point: 66.0 F (18.9 C)
Relative Humidity: 73%
Pressure (altimeter): 30.05 in. Hg (1017 hPa)
ob: KITH 151556Z VRB04KT 10SM SCT080 BKN100 24/19 A3005 RMK AO2 SLP171 T02390189
cycle: 16

Station Type Date Time Source
KITH TAF 2020/08/15 12:22 UTC NOAA

TAF KITH 151120Z 1512/1612 VRB03KT P6SM SCT080
FM151600 15007KT P6SM SCT100
FM160600 13005KT P6SM OVC050

Example: see airport list